createdAt,value
2023-06-12T00:00:52.448Z,19.81
2023-06-12T00:03:21.410Z,19.79
2023-06-12T00:05:49.833Z,19.80
2023-06-12T00:08:18.991Z,19.82
2023-06-12T00:10:48.586Z,19.74
2023-06-12T00:13:16.819Z,19.75
2023-06-12T00:15:44.861Z,19.75
2023-06-12T00:18:14.223Z,19.70
2023-06-12T00:20:42.506Z,19.67
2023-06-12T00:23:12.081Z,19.59
2023-06-12T00:25:40.780Z,19.59
2023-06-12T00:28:08.810Z,19.53
2023-06-12T00:30:36.902Z,19.49
2023-06-12T00:33:05.054Z,19.55
2023-06-12T00:35:34.382Z,19.51
2023-06-12T00:38:03.656Z,19.48
2023-06-12T00:40:31.541Z,19.48
2023-06-12T00:42:59.467Z,19.40
2023-06-12T00:45:27.463Z,19.40
2023-06-12T00:47:58.995Z,19.39
2023-06-12T00:50:28.628Z,19.35
2023-06-12T00:52:59.567Z,19.31
2023-06-12T00:55:28.499Z,19.22
2023-06-12T00:57:56.458Z,19.24
2023-06-12T01:00:25.991Z,19.23
2023-06-12T01:02:57.018Z,19.26
2023-06-12T01:05:34.202Z,19.22
2023-06-12T01:08:20.516Z,19.19
2023-06-12T01:10:54.498Z,19.06
2023-06-12T01:13:23.337Z,19.08
2023-06-12T01:15:51.771Z,19.11
2023-06-12T01:18:22.180Z,19.03
2023-06-12T01:20:52.131Z,19.00
2023-06-12T01:23:39.064Z,18.95
2023-06-12T01:26:28.195Z,18.96
2023-06-12T01:29:34.370Z,18.93
2023-06-12T01:32:06.980Z,18.91
2023-06-12T01:34:39.462Z,18.92
2023-06-12T01:37:16.171Z,18.85
2023-06-12T01:39:51.009Z,18.85
2023-06-12T01:42:19.428Z,18.80
2023-06-12T01:44:47.282Z,18.76
2023-06-12T01:47:16.505Z,18.75
2023-06-12T01:49:44.483Z,18.70
2023-06-12T01:52:12.645Z,18.65
2023-06-12T01:54:41.600Z,18.61
2023-06-12T01:57:13.147Z,18.61
2023-06-12T01:59:44.310Z,18.56
2023-06-12T02:02:12.437Z,18.57
2023-06-12T02:04:41.762Z,18.52
2023-06-12T02:07:10.088Z,18.54
2023-06-12T02:09:37.989Z,18.47
2023-06-12T02:12:07.586Z,18.38
2023-06-12T02:14:36.724Z,18.41
2023-06-12T02:17:05.217Z,18.42
2023-06-12T02:19:34.144Z,18.37
2023-06-12T02:22:03.515Z,18.35
2023-06-12T02:24:34.210Z,18.31
2023-06-12T02:27:05.369Z,18.26
2023-06-12T02:29:33.636Z,18.26
2023-06-12T02:32:06.713Z,18.21
2023-06-12T02:34:35.874Z,18.06
2023-06-12T02:37:05.695Z,18.05
2023-06-12T02:39:33.798Z,17.98
2023-06-12T02:42:04.866Z,17.88
2023-06-12T02:44:32.812Z,17.89
2023-06-12T02:47:02.537Z,17.81
2023-06-12T02:49:36.660Z,17.71
2023-06-12T02:52:08.191Z,17.66
2023-06-12T02:54:36.165Z,17.58
2023-06-12T02:57:05.508Z,17.47
2023-06-12T02:59:33.548Z,17.43
2023-06-12T03:02:09.725Z,17.35
2023-06-12T03:04:42.184Z,17.26
2023-06-12T03:07:13.892Z,17.26
2023-06-12T03:09:43.806Z,17.20
2023-06-12T03:12:12.180Z,17.11
2023-06-12T03:14:40.751Z,17.09
2023-06-12T03:17:09.091Z,17.06
2023-06-12T03:19:37.020Z,16.94
2023-06-12T03:22:05.174Z,16.96
2023-06-12T03:24:34.620Z,16.87
2023-06-12T03:27:02.530Z,16.80
2023-06-12T03:29:32.504Z,16.77
2023-06-12T03:32:00.585Z,16.72
2023-06-12T03:34:37.513Z,16.68
2023-06-12T03:37:06.646Z,16.66
2023-06-12T03:39:36.845Z,16.62
2023-06-12T03:42:05.999Z,16.62
2023-06-12T03:44:41.205Z,16.59
2023-06-12T03:47:09.263Z,16.61
2023-06-12T03:49:37.231Z,16.58
2023-06-12T03:52:08.651Z,16.53
2023-06-12T03:54:39.223Z,16.60
2023-06-12T03:57:08.152Z,16.54
2023-06-12T03:59:36.379Z,16.48
2023-06-12T04:02:05.231Z,16.42
2023-06-12T04:04:33.642Z,16.45
2023-06-12T04:07:01.809Z,16.43
2023-06-12T04:09:30.130Z,16.42
2023-06-12T04:11:59.471Z,16.36
2023-06-12T04:14:27.541Z,16.37
2023-06-12T04:16:55.545Z,16.35
2023-06-12T04:19:23.529Z,16.35
2023-06-12T04:21:52.469Z,16.41
2023-06-12T04:24:20.697Z,16.45
2023-06-12T04:26:49.814Z,16.42
2023-06-12T04:29:19.469Z,16.48
2023-06-12T04:31:47.609Z,16.44
2023-06-12T04:34:16.955Z,16.51
2023-06-12T04:36:46.576Z,16.53
2023-06-12T04:39:15.394Z,16.57
2023-06-12T04:41:44.254Z,16.62
2023-06-12T04:44:13.582Z,16.69
2023-06-12T04:46:44.324Z,16.70
2023-06-12T04:49:12.190Z,16.76
2023-06-12T04:51:40.725Z,16.76
2023-06-12T04:54:10.759Z,16.80
2023-06-12T04:56:41.575Z,16.80
2023-06-12T04:59:11.736Z,16.88
2023-06-12T05:01:40.425Z,16.88
2023-06-12T05:04:11.221Z,16.91
2023-06-12T05:06:41.454Z,16.93
2023-06-12T05:09:09.397Z,16.99
2023-06-12T05:11:37.973Z,17.10
2023-06-12T05:14:07.574Z,17.16
2023-06-12T05:16:35.759Z,17.19
2023-06-12T05:19:03.888Z,17.28
2023-06-12T05:21:34.274Z,17.37
2023-06-12T05:24:02.849Z,17.43
2023-06-12T05:26:31.237Z,17.54
2023-06-12T05:28:59.330Z,17.72
2023-06-12T05:31:30.116Z,17.83
2023-06-12T05:33:58.377Z,17.95
2023-06-12T05:36:26.972Z,18.04
2023-06-12T05:38:56.229Z,18.16
2023-06-12T05:41:24.570Z,18.19
2023-06-12T05:43:52.427Z,18.26
2023-06-12T05:46:22.055Z,18.34
2023-06-12T05:48:50.916Z,18.42
2023-06-12T05:51:19.503Z,18.50
2023-06-12T05:53:50.054Z,18.51
2023-06-12T05:56:23.250Z,18.61
2023-06-12T05:58:51.245Z,18.71
2023-06-12T06:01:23.167Z,18.76
2023-06-12T06:03:57.081Z,18.79
2023-06-12T06:06:28.822Z,18.88
2023-06-12T06:08:57.354Z,19.01
2023-06-12T06:11:29.417Z,19.06
2023-06-12T06:14:00.803Z,19.19
2023-06-12T06:16:39.948Z,19.21
2023-06-12T06:19:17.215Z,19.30
2023-06-12T06:21:45.896Z,19.36
2023-06-12T06:24:14.866Z,19.41
2023-06-12T06:26:44.361Z,19.49
2023-06-12T06:29:14.769Z,19.53
2023-06-12T06:31:45.320Z,19.55
2023-06-12T06:34:15.274Z,19.57
2023-06-12T06:36:45.030Z,19.64
2023-06-12T06:39:13.346Z,19.78
2023-06-12T06:41:41.936Z,19.85
2023-06-12T06:44:12.031Z,19.91
2023-06-12T06:46:44.806Z,19.97
2023-06-12T06:49:13.712Z,20.05
2023-06-12T06:51:42.894Z,20.11
2023-06-12T06:54:10.887Z,20.15
2023-06-12T06:56:39.989Z,20.26
2023-06-12T06:59:08.573Z,20.35
2023-06-12T07:01:40.707Z,20.35
2023-06-12T07:04:10.649Z,20.44
2023-06-12T07:06:38.647Z,20.56
2023-06-12T07:09:09.191Z,20.57
2023-06-12T07:11:37.585Z,20.68
2023-06-12T07:14:06.292Z,20.70
2023-06-12T07:16:35.519Z,20.73
2023-06-12T07:19:05.947Z,20.86
2023-06-12T07:21:34.204Z,20.85
2023-06-12T07:24:03.232Z,20.96
2023-06-12T07:26:31.677Z,20.95
2023-06-12T07:29:07.619Z,20.95
2023-06-12T07:31:35.573Z,20.96
2023-06-12T07:34:07.845Z,21.02
2023-06-12T07:36:38.241Z,21.11
2023-06-12T07:39:07.443Z,21.24
2023-06-12T07:41:40.157Z,21.33
2023-06-12T07:44:08.156Z,21.29
2023-06-12T07:46:36.391Z,21.31
2023-06-12T07:49:05.881Z,21.42
2023-06-12T07:51:34.633Z,21.41
2023-06-12T07:54:02.879Z,21.41
2023-06-12T07:56:34.093Z,21.52
2023-06-12T07:59:08.142Z,21.56
2023-06-12T08:01:37.528Z,21.66
2023-06-12T08:04:11.393Z,21.65
2023-06-12T08:06:42.032Z,21.63
2023-06-12T08:09:11.299Z,21.73
2023-06-12T08:11:40.287Z,21.83
2023-06-12T08:14:08.605Z,21.94
2023-06-12T08:16:38.130Z,22.07
2023-06-12T08:19:08.642Z,22.09
2023-06-12T08:21:38.416Z,22.02
2023-06-12T08:24:08.914Z,22.08
2023-06-12T08:26:37.274Z,22.16
2023-06-12T08:29:06.257Z,22.28
2023-06-12T08:31:38.165Z,22.34
2023-06-12T08:34:08.332Z,22.35
2023-06-12T08:36:37.983Z,22.46
2023-06-12T08:39:08.083Z,22.40
2023-06-12T08:41:43.259Z,22.49
2023-06-12T08:44:12.554Z,22.50
2023-06-12T08:46:44.818Z,22.58
2023-06-12T08:49:17.322Z,22.73
2023-06-12T08:51:46.145Z,22.79
2023-06-12T08:54:16.900Z,22.85
2023-06-12T08:56:46.504Z,22.96
2023-06-12T08:59:15.993Z,23.01
2023-06-12T09:01:53.179Z,23.01
2023-06-12T09:04:39.069Z,23.00
2023-06-12T09:07:07.092Z,22.92
2023-06-12T09:09:40.031Z,23.03
2023-06-12T09:12:13.997Z,23.17
2023-06-12T09:14:45.774Z,23.12
2023-06-12T09:17:15.292Z,23.08
2023-06-12T09:19:49.335Z,23.28
2023-06-12T09:22:17.829Z,23.35
2023-06-12T09:24:47.078Z,23.47
2023-06-12T09:27:15.115Z,23.55
2023-06-12T09:29:43.485Z,23.72
2023-06-12T09:32:14.009Z,23.38
2023-06-12T09:34:49.733Z,23.33
2023-06-12T09:37:18.526Z,23.45
2023-06-12T09:39:46.381Z,23.31
2023-06-12T09:42:18.216Z,23.42
2023-06-12T09:44:46.358Z,23.52
2023-06-12T09:47:14.710Z,23.41
2023-06-12T09:49:42.563Z,23.33
2023-06-12T09:52:13.282Z,23.34
2023-06-12T09:54:44.253Z,23.59
2023-06-12T09:57:15.774Z,23.58
2023-06-12T09:59:46.201Z,23.47
2023-06-12T10:02:16.698Z,23.43
2023-06-12T10:04:50.176Z,23.48
2023-06-12T10:07:26.017Z,23.44
2023-06-12T10:09:54.570Z,23.55
2023-06-12T10:12:24.206Z,23.63
2023-06-12T10:14:52.908Z,23.76
2023-06-12T10:17:23.390Z,23.78
2023-06-12T10:19:55.415Z,23.83
2023-06-12T10:22:25.499Z,24.00
2023-06-12T10:24:53.842Z,24.13
2023-06-12T10:27:21.969Z,24.32
2023-06-12T10:29:59.394Z,24.36
2023-06-12T10:32:33.261Z,24.14
2023-06-12T10:35:02.613Z,24.03
2023-06-12T10:37:33.851Z,24.20
2023-06-12T10:40:14.041Z,24.39
2023-06-12T10:42:45.495Z,24.37
2023-06-12T10:45:24.355Z,24.41
2023-06-12T10:48:19.565Z,24.63
2023-06-12T10:50:51.315Z,24.53
2023-06-12T10:53:25.213Z,24.63
2023-06-12T10:55:59.901Z,24.66
2023-06-12T10:58:29.853Z,24.50
2023-06-12T11:00:59.067Z,24.16
2023-06-12T11:03:30.797Z,24.39
2023-06-12T11:06:01.719Z,24.44
2023-06-12T11:08:34.089Z,24.47
2023-06-12T11:11:07.933Z,24.53
2023-06-12T11:13:36.995Z,24.65
2023-06-12T11:16:07.222Z,24.70
2023-06-12T11:18:35.185Z,24.69
2023-06-12T11:21:04.261Z,24.76
2023-06-12T11:23:35.416Z,24.67
2023-06-12T11:26:08.633Z,24.53
2023-06-12T11:28:37.262Z,24.72
2023-06-12T11:31:11.865Z,24.56
2023-06-12T11:33:41.888Z,24.41
2023-06-12T11:36:12.405Z,24.66
2023-06-12T11:41:14.382Z,24.74
2023-06-12T11:43:45.832Z,24.83
2023-06-12T11:46:15.772Z,24.86
2023-06-12T11:51:16.850Z,24.96
2023-06-12T11:53:46.245Z,25.00
2023-06-12T11:58:47.197Z,25.00
2023-06-12T12:01:23.720Z,24.98
2023-06-12T12:03:56.578Z,24.98
2023-06-12T12:06:28.614Z,24.91
2023-06-12T12:08:58.588Z,25.02
2023-06-12T12:11:30.303Z,24.98
2023-06-12T12:14:01.328Z,25.06
2023-06-12T12:16:31.142Z,25.04
2023-06-12T12:18:59.701Z,25.00
2023-06-12T12:21:28.591Z,25.05
2023-06-12T12:23:58.487Z,24.99
2023-06-12T12:26:27.238Z,24.98
2023-06-12T12:28:55.449Z,25.11
2023-06-12T12:31:23.994Z,24.98
2023-06-12T12:33:52.624Z,25.21
2023-06-12T12:36:20.565Z,25.22
2023-06-12T12:38:48.949Z,25.26
2023-06-12T12:41:18.518Z,25.37
2023-06-12T12:43:48.823Z,25.36
2023-06-12T12:46:18.294Z,25.38
2023-06-12T12:48:47.031Z,25.35
2023-06-12T12:51:15.819Z,25.45
2023-06-12T12:53:44.551Z,25.37
2023-06-12T12:56:14.206Z,25.27
2023-06-12T12:58:43.885Z,25.19
2023-06-12T13:01:13.238Z,25.17
2023-06-12T13:03:42.092Z,25.31
2023-06-12T13:06:12.225Z,25.29
2023-06-12T13:08:40.710Z,25.43
2023-06-12T13:11:09.932Z,25.50
2023-06-12T13:13:39.678Z,25.54
2023-06-12T13:16:09.592Z,25.56
2023-06-12T13:18:38.092Z,25.68
2023-06-12T13:21:07.844Z,25.71
2023-06-12T13:23:36.090Z,25.80
2023-06-12T13:26:04.291Z,25.79
2023-06-12T13:28:34.517Z,25.85
2023-06-12T13:31:02.597Z,25.99
2023-06-12T13:33:31.864Z,25.79
2023-06-12T13:36:00.633Z,25.76
2023-06-12T13:38:29.670Z,25.76
2023-06-12T13:40:57.695Z,25.77
2023-06-12T13:43:26.517Z,25.87
2023-06-12T13:45:56.577Z,25.91
2023-06-12T13:48:24.531Z,25.88
2023-06-12T13:50:54.103Z,25.92
2023-06-12T13:53:23.288Z,25.86
2023-06-12T13:55:51.938Z,25.94
2023-06-12T13:58:21.117Z,25.86
2023-06-12T14:00:49.346Z,25.84
2023-06-12T14:03:17.244Z,26.02
2023-06-12T14:05:45.491Z,26.06
2023-06-12T14:08:14.801Z,26.05
2023-06-12T14:10:44.918Z,26.15
2023-06-12T14:13:12.968Z,26.20
2023-06-12T14:15:42.101Z,25.93
2023-06-12T14:18:11.371Z,26.26
2023-06-12T14:20:39.755Z,26.39
2023-06-12T14:23:08.134Z,26.42
2023-06-12T14:25:39.066Z,26.54
2023-06-12T14:28:08.182Z,26.59
2023-06-12T14:30:37.158Z,26.49
2023-06-12T14:33:06.033Z,26.42
2023-06-12T14:35:34.030Z,26.62
2023-06-12T14:38:02.871Z,26.65
2023-06-12T14:40:31.325Z,26.79
2023-06-12T14:43:00.841Z,26.75
2023-06-12T14:45:28.743Z,26.90
2023-06-12T14:47:57.307Z,27.01
2023-06-12T14:50:25.290Z,27.06
2023-06-12T14:52:54.567Z,27.04
2023-06-12T14:55:22.651Z,27.18
2023-06-12T14:57:52.184Z,27.44
2023-06-12T15:00:22.480Z,27.72
2023-06-12T15:02:51.479Z,27.76
2023-06-12T15:05:20.405Z,27.83
2023-06-12T15:07:48.274Z,28.15
2023-06-12T15:10:17.115Z,28.04
2023-06-12T15:12:55.537Z,28.53
2023-06-12T15:15:33.896Z,28.78
2023-06-12T15:18:01.971Z,28.43
2023-06-12T15:20:30.108Z,28.92
2023-06-12T15:22:58.015Z,29.28
2023-06-12T15:25:25.905Z,29.44
2023-06-12T15:27:54.133Z,29.30
2023-06-12T15:30:22.233Z,30.27
2023-06-12T15:32:51.966Z,30.24
2023-06-12T15:35:20.646Z,30.66
2023-06-12T15:37:48.806Z,30.88
2023-06-12T15:40:18.214Z,30.76
2023-06-12T15:42:48.991Z,31.40
2023-06-12T15:45:17.801Z,32.03
2023-06-12T15:47:45.790Z,32.22
2023-06-12T15:50:15.141Z,32.50
2023-06-12T15:52:43.011Z,32.64
2023-06-12T15:55:11.457Z,32.77
2023-06-12T15:57:48.812Z,32.85
2023-06-12T16:00:21.297Z,33.47
2023-06-12T16:02:49.583Z,33.89
2023-06-12T16:05:19.448Z,34.30
2023-06-12T16:07:48.478Z,34.40
2023-06-12T16:10:16.611Z,34.42
2023-06-12T16:12:45.975Z,34.53
2023-06-12T16:15:15.285Z,34.71
2023-06-12T16:17:43.438Z,34.81
2023-06-12T16:20:12.174Z,34.46
2023-06-12T16:22:41.854Z,34.01
2023-06-12T16:25:11.786Z,34.50
2023-06-12T16:27:40.230Z,34.09
2023-06-12T16:30:09.916Z,33.70
2023-06-12T16:32:38.216Z,32.73
2023-06-12T16:35:06.752Z,32.68
2023-06-12T16:37:34.633Z,31.87
2023-06-12T16:40:09.430Z,31.22
2023-06-12T16:42:38.365Z,30.89
2023-06-12T16:45:08.442Z,30.41
2023-06-12T16:47:36.943Z,30.17
2023-06-12T16:50:06.015Z,29.87
2023-06-12T16:52:33.879Z,29.58
2023-06-12T16:55:01.787Z,29.31
2023-06-12T16:57:31.437Z,29.35
2023-06-12T16:59:59.828Z,29.00
2023-06-12T17:02:27.945Z,28.70
2023-06-12T17:04:57.062Z,28.26
2023-06-12T17:07:26.217Z,28.01
2023-06-12T17:09:55.243Z,27.75
2023-06-12T17:12:23.224Z,27.70
2023-06-12T17:14:52.994Z,27.38
2023-06-12T17:17:21.392Z,27.32
2023-06-12T17:19:49.687Z,27.22
2023-06-12T17:22:18.653Z,27.22
2023-06-12T17:24:46.940Z,26.86
2023-06-12T17:27:15.156Z,26.75
2023-06-12T17:29:43.136Z,26.64
2023-06-12T17:32:12.525Z,26.38
2023-06-12T17:34:41.682Z,26.35
2023-06-12T17:37:09.730Z,26.26
2023-06-12T17:39:37.694Z,26.12
2023-06-12T17:42:06.969Z,25.98
2023-06-12T17:44:41.786Z,25.88
2023-06-12T17:47:11.837Z,25.78
2023-06-12T17:49:42.588Z,25.73
2023-06-12T17:52:10.696Z,25.64
2023-06-12T17:54:39.300Z,25.55
2023-06-12T17:57:07.617Z,25.46
2023-06-12T17:59:37.038Z,25.48
2023-06-12T18:02:05.389Z,25.38
2023-06-12T18:04:34.108Z,25.34
2023-06-12T18:07:04.659Z,25.24
2023-06-12T18:09:32.568Z,25.06
2023-06-12T18:12:00.485Z,25.14
2023-06-12T18:14:28.554Z,25.08
2023-06-12T18:16:56.597Z,25.01
2023-06-12T18:19:24.703Z,24.96
2023-06-12T18:21:52.600Z,24.98
2023-06-12T18:24:22.162Z,24.89
2023-06-12T18:26:50.287Z,24.84
2023-06-12T18:29:19.481Z,24.73
2023-06-12T18:31:48.269Z,24.68
2023-06-12T18:34:16.697Z,24.61
2023-06-12T18:36:44.723Z,24.54
2023-06-12T18:39:12.673Z,24.49
2023-06-12T18:41:41.967Z,24.36
2023-06-12T18:44:13.341Z,24.25
2023-06-12T18:46:41.968Z,24.23
2023-06-12T18:49:10.052Z,24.21
2023-06-12T18:51:38.409Z,24.16
2023-06-12T18:54:06.399Z,24.11
2023-06-12T18:56:39.278Z,24.05
2023-06-12T18:59:08.646Z,24.01
2023-06-12T19:01:36.972Z,23.92
2023-06-12T19:04:06.157Z,23.92
2023-06-12T19:06:35.040Z,23.86
2023-06-12T19:09:03.300Z,23.77
2023-06-12T19:11:31.320Z,23.74
2023-06-12T19:13:59.741Z,23.67
2023-06-12T19:16:29.305Z,23.64
2023-06-12T19:18:57.430Z,23.62
2023-06-12T19:21:25.443Z,23.55
2023-06-12T19:23:54.145Z,23.44
2023-06-12T19:26:22.642Z,23.33
2023-06-12T19:28:52.758Z,23.30
2023-06-12T19:31:21.049Z,23.29
2023-06-12T19:33:51.575Z,23.20
2023-06-12T19:36:19.558Z,23.15
2023-06-12T19:38:47.515Z,23.11
2023-06-12T19:41:15.776Z,23.02
2023-06-12T19:43:43.753Z,23.00
2023-06-12T19:46:13.151Z,22.97
2023-06-12T19:48:41.213Z,22.88
2023-06-12T19:51:10.537Z,22.84
2023-06-12T19:53:38.489Z,22.78
2023-06-12T19:56:07.090Z,22.73
2023-06-12T19:58:36.365Z,22.63
2023-06-12T20:01:04.416Z,22.58
2023-06-12T20:03:32.580Z,22.51
2023-06-12T20:06:00.975Z,22.54
2023-06-12T20:08:30.486Z,22.43
2023-06-12T20:10:58.343Z,22.35
2023-06-12T20:13:26.428Z,22.37
2023-06-12T20:15:54.342Z,22.36
2023-06-12T20:18:22.258Z,22.24
2023-06-12T20:20:51.745Z,22.24
2023-06-12T20:23:20.327Z,22.18
2023-06-12T20:25:50.759Z,22.14
2023-06-12T20:28:21.059Z,22.14
2023-06-12T20:30:49.079Z,22.07
2023-06-12T20:33:17.951Z,22.02
2023-06-12T20:35:45.914Z,21.94
2023-06-12T20:38:13.828Z,21.93
2023-06-12T20:40:41.945Z,21.89
2023-06-12T20:43:14.487Z,21.86
2023-06-12T20:45:42.695Z,21.76
2023-06-12T20:48:10.653Z,21.77
2023-06-12T20:50:38.668Z,21.71
2023-06-12T20:53:06.989Z,21.64
2023-06-12T20:55:34.869Z,21.61
2023-06-12T20:58:02.767Z,21.59
2023-06-12T21:00:32.499Z,21.52
2023-06-12T21:03:00.746Z,21.47
2023-06-12T21:05:28.663Z,21.46
2023-06-12T21:07:56.524Z,21.25
2023-06-12T21:10:24.414Z,21.29
2023-06-12T21:12:52.387Z,21.25
2023-06-12T21:15:20.719Z,21.26
2023-06-12T21:17:51.867Z,21.19
2023-06-12T21:20:19.810Z,21.16
2023-06-12T21:22:48.854Z,21.09
2023-06-12T21:25:17.363Z,21.06
2023-06-12T21:27:45.604Z,20.99
2023-06-12T21:30:13.887Z,20.93
2023-06-12T21:32:53.466Z,20.91
2023-06-12T21:35:21.578Z,20.83
2023-06-12T21:37:49.466Z,20.83
2023-06-12T21:40:17.440Z,20.68
2023-06-12T21:42:45.343Z,20.68
2023-06-12T21:45:13.525Z,20.62
2023-06-12T21:47:42.015Z,20.61
2023-06-12T21:50:11.969Z,20.59
2023-06-12T21:52:39.886Z,20.52
2023-06-12T21:55:08.724Z,20.48
2023-06-12T21:57:36.565Z,20.39
2023-06-12T22:00:06.250Z,20.38
2023-06-12T22:02:41.247Z,20.35
2023-06-12T22:05:11.596Z,20.34
2023-06-12T22:07:39.658Z,20.31
2023-06-12T22:10:08.121Z,20.27
2023-06-12T22:12:36.381Z,20.18
2023-06-12T22:15:04.924Z,20.14
2023-06-12T22:17:32.846Z,20.05
2023-06-12T22:20:02.038Z,20.11
2023-06-12T22:22:31.273Z,20.00
2023-06-12T22:24:59.167Z,19.98
2023-06-12T22:27:27.159Z,19.95
2023-06-12T22:29:55.025Z,19.91
2023-06-12T22:32:22.956Z,19.87
2023-06-12T22:34:51.524Z,19.81
2023-06-12T22:37:19.409Z,19.78
2023-06-12T22:39:48.636Z,19.73
2023-06-12T22:42:16.733Z,19.67
2023-06-12T22:44:45.218Z,19.67
2023-06-12T22:47:13.974Z,19.54
2023-06-12T22:49:41.836Z,19.47
2023-06-12T22:52:11.562Z,19.39
2023-06-12T22:54:39.643Z,19.25
2023-06-12T22:57:09.392Z,19.31
2023-06-12T22:59:37.999Z,19.21
2023-06-12T23:02:06.470Z,19.14
2023-06-12T23:04:36.460Z,19.07
2023-06-12T23:07:07.969Z,19.09
2023-06-12T23:09:36.431Z,19.07
2023-06-12T23:12:04.721Z,19.05
2023-06-12T23:14:33.895Z,18.96
2023-06-12T23:17:02.889Z,18.93
2023-06-12T23:19:32.433Z,18.98
2023-06-12T23:22:01.977Z,18.94
2023-06-12T23:24:29.912Z,18.83
2023-06-12T23:26:58.658Z,18.89
2023-06-12T23:29:26.869Z,18.86
2023-06-12T23:31:56.696Z,18.78
2023-06-12T23:34:24.633Z,18.81
2023-06-12T23:36:52.587Z,18.78
2023-06-12T23:39:20.412Z,18.74
2023-06-12T23:41:48.879Z,18.75
2023-06-12T23:44:17.123Z,18.73
2023-06-12T23:46:45.674Z,18.68
2023-06-12T23:49:14.953Z,18.62
2023-06-12T23:51:42.879Z,18.66
2023-06-12T23:54:10.883Z,18.62
2023-06-12T23:56:39.212Z,18.66
2023-06-12T23:59:09.093Z,18.58
